M I D A S
Marine Information and Data Acquisition System
Tripno 488 of the Zeeleeuw from 2003-04-09 06:23:00 to 2003-04-09 13:32:44
Back to CruiseResearch ActivitiesStationsMapUnderway DataData graphs

EquipmentUnitsComment
TimeDGPSUTC
LatitudeDGPSDM.mWGS84
LongitudeDGPSDM.mWGS84
TemperatureSBE03/SBE38deg celciusITS90
ConductivitySBE21S/mITS90
SalinitySBE21 Practical Salinity Units
ChlorophylAChelsea fluorimeterg/lCalibrated in Aceton
Missing or incorrect values are displayed as -999
Sea surface data collected by the RV Zeeleeuw from 2003-04-09 06:23:00 to 2003-04-09 13:32:44
Time Latitude Longitude Temperature Conductivity Salinity ChlorophylA
2003-04-09 06:24:07 51°13.623 2°55.988 14.060671 3.750937 29.340432 -0.848668
2003-04-09 06:25:06 51°13.663 2°55.857 14.052906 3.750832 29.338966 -0.848668
2003-04-09 06:26:06 51°13.695 2°55.754 14.059656 3.750832 29.338966 -0.848668
2003-04-09 06:27:06 51°13.704 2°55.757 14.068743 3.750727 29.339702 -0.848668
2003-04-09 06:28:06 51°13.695 2°55.736 14.062303 3.750621 29.337684 -0.814958
2003-04-09 06:29:06 51°13.709 2°55.718 14.050127 3.750516 29.33787 -0.882377
2003-04-09 06:30:26 51°13.827 2°55.627 14.077255 3.750621 29.339887 -0.848668
2003-04-09 06:31:28 51°13.935 2°55.543 14.079725 3.75041 29.338055 -0.848668
2003-04-09 06:32:27 51°14.049 2°55.465 14.084444 3.750305 29.337139 -0.848668
2003-04-09 06:33:28 51°14.168 2°55.378 14.08171 3.750305 29.33769 -0.882377
2003-04-09 06:34:28 51°14.277 2°55.231 14.079946 3.7502 29.336774 -0.848668
2003-04-09 06:35:27 51°14.359 2°55.037 14.082063 3.750094 29.336959 -0.848668
2003-04-09 06:36:28 51°14.455 2°54.838 14.047347 3.749673 29.335498 -0.848668
2003-04-09 06:37:27 51°14.585 2°54.718 14.020956 3.749462 29.33642 -0.848668
2003-04-09 06:38:27 51°14.734 2°54.672 14.010715 3.749146 29.337527 -0.882377
2003-04-09 06:39:27 51°14.875 2°54.638 -999 3.748724 29.336617 -0.848668
2003-04-09 06:40:28 51°14.97 2°54.65 -999 3.748303 29.335706 -0.848668
2003-04-09 06:41:27 51°15.028 2°54.672 -999 3.747987 29.335712 -0.848668
2003-04-09 06:42:27 51°15.08 2°54.69 -999 3.747354 29.331866 -0.882377
2003-04-09 06:43:28 51°15.161 2°54.736 -999 3.747144 29.329481 -0.814958
2003-04-09 06:44:27 51°15.304 2°54.939 -999 3.747038 29.330769 -0.848668
2003-04-09 06:45:28 51°15.455 2°55.221 -999 3.746722 29.32857 -0.848668
2003-04-09 06:46:28 51°15.608 2°55.508 -999 3.746617 29.328205 -0.848668
2003-04-09 06:47:28 51°15.757 2°55.8 -999 3.746617 29.328756 -0.882377
2003-04-09 06:48:28 51°15.915 2°56.089 -999 3.746406 29.328576 -0.882377
2003-04-09 06:49:28 51°16.066 2°56.389 -999 3.746195 29.328396 -0.848668
2003-04-09 06:50:28 51°16.215 2°56.689 -999 3.745984 29.329318 -0.848668
2003-04-09 06:51:28 51°16.359 2°56.986 -999 3.745774 29.330793 -0.882377
2003-04-09 06:52:28 51°16.504 2°57.279 -999 3.745247 29.33117 -0.848668
2003-04-09 06:53:26 51°16.64 2°57.56 -999 3.74472 29.331549 -0.848668
2003-04-09 06:54:28 51°16.787 2°57.869 -999 3.743877 29.33083 -0.848668
2003-04-09 06:55:28 51°16.926 2°58.174 -999 3.74335 29.330105 -0.848668
2003-04-09 06:56:28 51°17.062 2°58.482 -999 3.742507 29.327731 -0.882377
2003-04-09 06:57:28 51°17.191 2°58.794 -999 3.741875 29.325536 -0.882377
2003-04-09 06:58:28 51°17.322 2°59.106 -999 3.741242 29.323893 -0.814958
2003-04-09 06:59:27 51°17.451 2°59.414 -999 3.740926 29.324451 -0.848668
2003-04-09 07:00:26 51°17.575 2°59.727 -999 3.740083 29.320972 -0.814958
2003-04-09 07:01:28 51°17.7 3°0.06 -999 3.739767 29.320978 -0.848668
2003-04-09 07:02:28 51°17.795 3°0.404 -999 3.739346 29.319514 -0.814958
2003-04-09 07:03:27 51°17.893 3°0.743 -999 3.738819 29.318789 -0.848668
2003-04-09 07:04:28 51°17.999 3°1.088 -999 3.738503 29.318243 -0.848668
2003-04-09 07:05:28 51°18.106 3°1.425 -999 3.73787 29.316599 -0.882377
2003-04-09 07:06:28 51°18.22 3°1.755 -999 3.737554 29.316605 -0.848668
2003-04-09 07:07:28 51°18.334 3°2.084 -999 3.737133 29.315693 -0.814958
2003-04-09 07:08:28 51°18.447 3°2.414 -999 3.736817 29.316252 -0.848668
2003-04-09 07:09:28 51°18.558 3°2.745 -999 3.736395 29.316445 -0.848668
2003-04-09 07:10:28 51°18.654 3°3.082 -999 3.736184 29.317924 -0.848668
2003-04-09 07:11:28 51°18.749 3°3.419 -999 3.735341 29.314994 -0.848668
2003-04-09 07:12:28 51°18.789 3°3.653 -999 3.734814 29.314268 -0.848668
2003-04-09 07:13:28 51°18.766 3°3.767 -999 3.734393 29.313356 -0.814958
2003-04-09 07:14:28 51°18.739 3°3.811 -999 3.734077 29.313916 -0.848668
2003-04-09 07:15:28 51°18.74 3°3.808 -999 3.733761 29.313923 -0.882377
2003-04-09 07:16:28 51°18.75 3°3.798 -999 3.733445 29.314483 -0.848668
2003-04-09 07:17:28 51°18.754 3°3.787 -999 3.732918 29.313758 -0.848668
2003-04-09 07:18:28 51°18.755 3°3.777 -999 3.732285 29.312666 -0.848668
2003-04-09 07:19:28 51°18.756 3°3.766 -999 3.731864 29.31452 -0.848668
2003-04-09 07:20:28 51°18.753 3°3.757 -999 3.731126 29.31417 -0.848668
2003-04-09 07:21:28 51°18.752 3°3.749 -999 3.730178 29.314193 -0.882377
2003-04-09 07:22:28 51°18.749 3°3.741 -999 3.729335 29.315138 -0.882377
2003-04-09 07:23:28 51°18.744 3°3.732 -999 3.728281 29.313689 -0.848668
2003-04-09 07:24:28 51°18.744 3°3.725 -999 3.727122 29.312981 -0.882377
2003-04-09 07:25:28 51°18.714 3°3.714 -999 3.726068 29.312086 -0.882377
2003-04-09 07:26:28 51°18.694 3°3.604 -999 3.724804 29.314896 -0.814958
2003-04-09 07:27:28 51°18.789 3°3.578 -999 3.723539 29.306611 -0.882377
2003-04-09 07:28:28 51°18.938 3°3.749 -999 3.722486 29.305161 -0.882377
2003-04-09 07:29:28 51°19.085 3°3.97 -999 3.721221 29.303533 -0.814958
2003-04-09 07:30:28 51°19.21 3°4.195 -999 3.719851 29.305424 -0.882377
2003-04-09 07:31:28 51°19.299 3°4.164 -999 3.718797 29.306753 -0.848668
2003-04-09 07:32:27 51°19.295 3°4.051 -999 3.717006 29.30329 -0.882377
2003-04-09 07:33:28 51°19.263 3°3.981 14.011995 3.71532 29.301306 -0.848668
2003-04-09 07:34:28 51°19.233 3°3.946 14.729637 3.713529 29.298954 -0.882377
2003-04-09 07:35:28 51°19.206 3°3.921 14.336128 3.711843 29.294744 -0.848668
2003-04-09 07:36:27 51°19.165 3°3.879 15.079992 3.710368 29.292381 -0.848668
2003-04-09 07:37:28 51°19.131 3°3.788 15.000078 3.708998 29.2915 -0.848668
2003-04-09 07:38:28 51°19.089 3°3.699 14.879986 3.707522 29.288022 -0.848668
2003-04-09 07:39:28 51°19.046 3°3.629 14.477622 3.706153 29.286584 -0.848668
2003-04-09 07:40:28 51°19.023 3°3.576 14.326681 3.704677 29.283662 -0.848668
2003-04-09 07:41:28 51°19.005 3°3.519 14.890532 3.703202 29.282971 -0.848668
2003-04-09 07:42:28 51°18.984 3°3.468 15.275337 3.701727 29.281722 -0.848668
2003-04-09 07:43:28 51°18.967 3°3.417 15.37254 3.700357 29.280843 -0.848668
2003-04-09 07:44:28 51°18.95 3°3.365 15.610606 3.698882 29.279595 -0.848668
2003-04-09 07:45:28 51°18.94 3°3.315 15.531444 3.697512 29.278717 -0.882377
2003-04-09 07:46:28 51°18.936 3°3.27 15.170402 3.695932 29.276543 -0.848668
2003-04-09 07:47:28 51°18.932 3°3.228 15.302239 3.694562 29.275107 -0.848668
2003-04-09 07:48:28 51°18.928 3°3.189 14.939449 3.692981 29.271256 -0.848668
2003-04-09 07:49:28 51°18.924 3°3.154 15.111315 3.691611 29.26926 -0.882377
2003-04-09 07:50:28 51°18.922 3°3.124 15.742884 3.690242 29.265585 -0.848668
2003-04-09 07:51:28 51°18.92 3°3.097 15.133375 3.689293 29.265063 -0.848668
2003-04-09 07:52:28 51°18.92 3°3.072 15.410863 3.688029 29.262875 -0.848668
2003-04-09 07:53:28 51°18.92 3°3.051 15.407317 3.687081 29.262354 -0.848668
2003-04-09 07:54:28 51°18.922 3°3.026 15.183332 3.685605 29.257748 -0.848668
2003-04-09 07:55:28 51°18.929 3°2.993 15.319388 3.685079 29.260944 -0.814958
2003-04-09 07:56:28 51°18.952 3°2.935 15.138238 3.683919 29.259685 -0.848668
2003-04-09 07:57:28 51°18.992 3°2.85 14.949464 3.68255 29.257689 -0.882377
2003-04-09 07:58:28 51°19.028 3°2.742 15.182811 3.681707 29.260343 -0.814958
2003-04-09 07:59:28 51°19.059 3°2.664 15.104756 3.680653 29.260016 -0.781249
2003-04-09 08:00:28 51°19.084 3°2.618 15.654957 3.678967 29.254106 -0.882377
2003-04-09 08:01:28 51°19.106 3°2.588 15.232255 3.677808 29.252848 -0.814958
2003-04-09 08:02:28 51°19.125 3°2.566 15.260431 3.676965 29.2527 -0.848668
2003-04-09 08:03:28 51°19.155 3°2.573 15.818148 3.675806 29.251442 -0.848668
2003-04-09 08:04:28 51°19.168 3°2.617 15.683432 3.674436 29.248884 -0.814958
2003-04-09 08:05:28 51°19.164 3°2.656 15.651036 3.673383 29.249683 -0.848668
2003-04-09 08:06:28 51°19.164 3°2.69 15.40256 3.672329 29.251608 -0.882377
2003-04-09 08:07:28 51°19.17 3°2.713 15.357741 3.670959 29.250738 -0.848668
2003-04-09 08:08:28 51°19.184 3°2.731 15.536019 3.66959 29.250432 -0.848668
2003-04-09 08:09:28 51°19.202 3°2.74 15.599956 3.668431 29.253683 -0.848668
2003-04-09 08:10:28 51°19.219 3°2.747 16.018803 3.666745 29.253397 -0.949796
2003-04-09 08:11:28 51°19.238 3°2.751 15.737936 3.665164 29.253484 -0.882377
2003-04-09 08:12:28 51°19.254 3°2.741 15.446787 3.663689 29.253378 -0.848668
2003-04-09 08:13:28 51°19.266 3°2.723 15.560876 3.662003 29.25197 -0.848668
2003-04-09 08:14:28 51°19.292 3°2.699 15.804822 3.660528 29.251867 -0.848668
2003-04-09 08:15:28 51°19.311 3°2.584 16.150249 3.658948 29.250265 -0.848668
2003-04-09 08:16:28 51°19.26 3°2.493 16.13365 3.657578 29.245449 -0.848668
2003-04-09 08:17:28 51°19.218 3°2.442 16.190104 3.656208 29.244023 -0.882377
2003-04-09 08:18:28 51°19.185 3°2.41 15.969413 3.654839 29.2409 -0.848668
2003-04-09 08:19:28 51°19.155 3°2.384 16.560643 3.653574 29.24041 -0.848668
2003-04-09 08:20:28 51°19.129 3°2.357 15.986566 3.652415 29.241989 -0.882377
2003-04-09 08:21:28 51°19.106 3°2.333 15.634229 3.651151 29.242068 -0.848668
2003-04-09 08:22:28 51°19.082 3°2.312 15.572913 3.649676 29.241406 -0.848668
2003-04-09 08:23:28 51°19.062 3°2.292 15.562257 3.648517 29.243558 -0.882377
2003-04-09 08:24:28 51°19.045 3°2.269 15.657629 3.646937 29.242528 -0.848668
2003-04-09 08:25:28 51°19.03 3°2.247 16.240318 3.645461 29.243005 -0.882377
2003-04-09 08:26:28 51°18.991 3°2.259 15.842086 3.643881 29.243113 -0.882377
2003-04-09 08:27:28 51°19.004 3°2.388 16.456348 3.642511 29.244533 -0.882377
2003-04-09 08:28:28 51°19.129 3°2.487 16.197671 3.640931 29.239531 -0.848668
2003-04-09 08:29:28 51°19.269 3°2.61 16.428578 3.63914 29.240037 -0.882377
2003-04-09 08:30:28 51°19.412 3°2.735 16.307909 3.63777 29.241463 -0.848668
2003-04-09 08:31:28 51°19.556 3°2.859 16.270684 3.635979 29.241406 -0.882377
2003-04-09 08:32:28 51°19.7 3°2.982 16.434627 3.634293 29.242862 -0.848668
2003-04-09 08:33:28 51°19.844 3°3.108 16.455965 3.632502 29.24338 -0.882377
2003-04-09 08:34:27 51°19.985 3°3.231 16.063189 3.6305 29.242588 -0.882377
2003-04-09 08:35:28 51°20.131 3°3.358 16.465546 3.628709 29.242541 -0.848668
2003-04-09 08:36:28 51°20.275 3°3.484 16.566383 3.626813 29.242125 -0.848668
2003-04-09 08:37:28 51°20.412 3°3.6 16.264834 3.624916 29.241712 -0.848668
2003-04-09 08:38:28 51°20.466 3°3.683 16.410086 3.62302 29.243016 -0.848668
2003-04-09 08:39:28 51°20.491 3°3.723 16.472997 3.621124 29.242608 -0.814958
2003-04-09 08:40:28 51°20.509 3°3.733 16.4976 3.619122 29.243548 -0.848668
2003-04-09 08:41:28 51°20.521 3°3.731 16.10318 3.61712 29.2422 -0.882377
2003-04-09 08:42:28 51°20.53 3°3.713 16.686174 3.615224 29.242373 -0.848668
2003-04-09 08:43:28 51°20.544 3°3.722 16.345667 3.613222 29.241602 -0.882377
2003-04-09 08:44:28 51°20.535 3°3.746 -999 -999 -999 -2.871232
2003-04-09 08:45:28 51°20.515 3°3.739 16.329585 3.609535 29.241186 -0.848668
2003-04-09 08:46:28 51°20.496 3°3.717 16.592781 3.607533 29.240422 -0.882377
2003-04-09 08:47:28 51°20.479 3°3.686 16.43271 3.605847 29.239054 -0.848668
2003-04-09 08:48:28 51°20.467 3°3.653 16.729282 3.604161 29.237686 -0.814958
2003-04-09 08:49:28 51°20.454 3°3.617 16.571868 3.602581 29.236116 -0.848668
2003-04-09 08:50:28 51°20.44 3°3.582 16.830834 3.601106 29.234921 -0.882377
2003-04-09 08:51:28 51°20.429 3°3.549 16.41848 3.599737 29.235252 -0.882377
2003-04-09 08:52:28 51°20.416 3°3.508 17.046198 3.598051 29.232734 -0.848668
2003-04-09 08:53:28 51°20.402 3°3.468 16.345582 3.596576 29.23154 -0.882377
2003-04-09 08:54:28 51°20.39 3°3.426 17.0133 3.595206 29.232453 -0.848668
2003-04-09 08:55:28 51°20.378 3°3.387 16.774905 3.593731 29.232993 -0.848668
2003-04-09 08:56:28 51°20.365 3°3.349 16.657435 3.592256 29.230647 -0.814958
2003-04-09 08:57:28 51°20.352 3°3.31 16.637391 3.590781 29.229457 -0.882377
2003-04-09 08:58:28 51°20.339 3°3.271 16.573143 3.589307 29.228267 -0.848668
2003-04-09 08:59:28 51°20.325 3°3.232 16.665247 3.587937 29.228031 -0.848668
2003-04-09 09:00:28 51°20.315 3°3.192 16.385707 3.586567 29.227216 -0.882377
2003-04-09 09:01:28 51°20.301 3°3.15 17.183529 3.585303 29.226198 -0.882377
2003-04-09 09:02:28 51°20.287 3°3.109 17.059496 3.584039 29.224023 -0.882377
2003-04-09 09:03:28 51°20.27 3°3.059 17.196043 3.582775 29.220688 -0.882377
2003-04-09 09:04:28 51°20.246 3°2.989 16.606592 3.581827 29.219634 -0.848668
2003-04-09 09:05:28 51°20.241 3°2.884 16.596776 3.580773 29.217627 -0.848668
2003-04-09 09:06:28 51°20.276 3°2.802 16.713713 3.579719 29.21504 -0.848668
2003-04-09 09:07:28 51°20.328 3°2.791 17.326307 3.578771 29.212827 -0.848668
2003-04-09 09:08:28 51°20.391 3°2.873 17.212724 3.578034 29.212522 -0.848668
2003-04-09 09:09:28 51°20.466 3°2.985 16.857384 3.577086 29.210889 -0.814958
2003-04-09 09:10:28 51°20.551 3°3.095 16.556774 3.576348 29.211165 -0.814958
2003-04-09 09:11:28 51°20.639 3°3.232 16.425468 3.575611 29.210281 -0.882377
2003-04-09 09:12:28 51°20.735 3°3.415 16.825539 3.574768 29.209023 -0.882377
2003-04-09 09:13:28 51°20.823 3°3.615 17.157569 3.574136 29.210256 -0.848668
2003-04-09 09:14:28 51°20.911 3°3.816 16.693177 3.573398 29.212857 -0.848668
2003-04-09 09:15:28 51°20.976 3°3.93 16.802536 3.572556 29.21218 -0.848668
2003-04-09 09:16:28 51°20.996 3°3.988 16.691267 3.571713 29.212085 -0.848668
2003-04-09 09:17:28 51°21.008 3°4.016 17.3633 3.571186 29.214278 -0.882377
2003-04-09 09:18:28 51°21.024 3°4.023 16.99336 3.570238 29.212646 -0.848668
2003-04-09 09:19:28 51°21.055 3°4.035 16.885193 3.569711 29.212515 -0.916087
2003-04-09 09:20:28 51°21.089 3°4.09 17.394644 3.568763 29.210882 -0.916087
2003-04-09 09:21:28 51°21.11 3°4.175 16.948389 3.568236 29.212497 -0.882377
2003-04-09 09:22:28 51°21.138 3°4.251 17.554716 3.567394 29.210658 -0.848668
2003-04-09 09:23:28 51°21.169 3°4.3 16.984064 3.566762 29.211899 -0.848668
2003-04-09 09:24:28 51°21.181 3°4.342 17.675269 3.566129 29.21314 -0.848668
2003-04-09 09:25:28 51°21.193 3°4.383 17.490438 3.565392 29.212842 -0.882377
2003-04-09 09:26:28 51°21.2 3°4.438 17.497443 3.56476 29.21292 -0.848668
2003-04-09 09:27:28 51°21.205 3°4.502 17.232137 3.564022 29.212039 -0.848668
2003-04-09 09:28:28 51°21.209 3°4.567 16.966609 3.56339 29.211535 -0.781249
2003-04-09 09:29:28 51°21.212 3°4.634 17.220515 3.562758 29.212196 -0.848668
2003-04-09 09:30:28 51°21.215 3°4.704 17.405733 3.562021 29.2119 -0.814958
2003-04-09 09:31:28 51°21.227 3°4.762 16.930586 3.561494 29.212354 -0.848668
2003-04-09 09:32:28 51°21.238 3°4.825 17.310747 3.560862 29.211267 -0.916087
2003-04-09 09:33:28 51°21.246 3°4.886 17.572902 3.560125 29.210388 -0.848668
2003-04-09 09:34:28 51°21.258 3°4.948 17.130924 3.559809 29.212178 -0.882377
2003-04-09 09:35:28 51°21.269 3°5.011 17.278649 3.559177 29.211091 -0.848668
2003-04-09 09:36:28 51°21.285 3°5.073 17.147072 3.558544 29.211756 -0.949796
2003-04-09 09:37:28 51°21.306 3°5.137 17.159381 3.558018 29.211629 -0.882377
2003-04-09 09:38:28 51°21.321 3°5.199 17.784544 3.557491 29.212086 -0.848668
2003-04-09 09:39:28 51°21.342 3°5.255 17.241105 3.556964 29.212543 -0.848668
2003-04-09 09:40:28 51°21.358 3°5.316 17.213903 3.556227 29.211081 -0.882377
2003-04-09 09:41:28 51°21.371 3°5.378 17.362039 3.555805 29.211915 -0.882377
2003-04-09 09:42:28 51°21.393 3°5.435 17.61303 3.555279 29.212373 -0.882377
2003-04-09 09:43:28 51°21.416 3°5.491 17.133158 3.554647 29.210702 -0.949796
2003-04-09 09:44:28 51°21.429 3°5.553 17.73415 3.554225 29.212122 -0.848668
2003-04-09 09:45:28 51°21.44 3°5.618 17.50277 3.553593 29.21396 -0.916087
2003-04-09 09:46:28 51°21.457 3°5.68 17.234453 3.552961 29.216386 -0.848668
2003-04-09 09:47:28 51°21.474 3°5.747 17.173964 3.552224 29.219608 -0.848668
2003-04-09 09:48:28 51°21.488 3°5.806 17.386831 3.551486 29.224005 -0.916087
2003-04-09 09:49:28 51°21.51 3°5.866 17.802963 3.550433 29.225519 -0.916087
2003-04-09 09:50:28 51°21.53 3°5.926 17.096084 3.549274 29.226659 -0.814958
2003-04-09 09:51:28 51°21.539 3°5.989 17.557188 3.548115 29.227801 -0.882377
2003-04-09 09:52:28 51°21.553 3°6.055 17.726417 3.547167 29.231459 -0.848668
2003-04-09 09:53:28 51°21.577 3°6.111 17.50168 3.545903 29.231643 -0.848668
2003-04-09 09:54:28 51°21.591 3°6.161 16.816898 3.544534 29.231452 -0.848668
2003-04-09 09:56:48 51°21.557 3°6.221 17.208638 3.541374 29.234864 -0.882377
2003-04-09 09:57:48 51°21.539 3°6.237 17.728423 3.539899 29.232536 -0.882377
2003-04-09 09:58:48 51°21.489 3°6.297 17.215587 3.538529 29.229996 -0.848668
2003-04-09 09:59:48 51°21.446 3°6.343 17.110047 3.537581 29.229551 -0.882377
2003-04-09 10:00:48 51°21.41 3°6.36 17.397795 3.536422 29.226585 -0.848668
2003-04-09 10:01:48 51°21.4 3°6.371 17.400315 3.535264 29.224208 -0.848668
2003-04-09 10:02:56 51°21.357 3°6.351 16.919928 3.53421 29.222797 -0.848668
2003-04-09 10:03:56 51°21.335 3°6.326 17.68464 3.533262 29.220583 -0.814958
2003-04-09 10:04:56 51°21.312 3°6.297 17.584926 3.532419 29.219926 -0.848668
2003-04-09 10:05:56 51°21.289 3°6.267 17.242537 3.531682 29.219646 -0.882377
2003-04-09 10:06:56 51°21.27 3°6.234 17.268255 3.530839 29.220169 -0.848668
2003-04-09 10:07:56 51°21.252 3°6.199 17.179063 3.529996 29.222464 -0.848668
2003-04-09 10:08:56 51°21.233 3°6.162 17.285676 3.529154 29.224762 -0.882377
2003-04-09 10:09:56 51°21.215 3°6.125 16.807959 3.5281 29.223944 -0.848668
2003-04-09 10:10:56 51°21.199 3°6.086 17.119748 3.527258 29.226245 -0.848668
2003-04-09 10:11:56 51°21.181 3°6.047 17.567581 3.52631 29.22758 -0.882377
2003-04-09 10:12:56 51°21.163 3°6.01 17.436261 3.525256 29.227356 -0.848668
2003-04-09 10:13:56 51°21.145 3°5.978 16.88752 3.524203 29.227133 -0.848668
2003-04-09 10:14:56 51°21.126 3°5.936 17.464257 3.523255 29.227287 -0.848668
2003-04-09 10:15:56 51°21.105 3°5.892 17.243252 3.522201 29.226473 -0.882377
2003-04-09 10:16:56 51°21.086 3°5.851 17.032095 3.521253 29.226037 -0.882377
2003-04-09 10:17:56 51°21.07 3°5.809 17.449022 3.520305 29.225009 -0.882377
2003-04-09 10:18:56 51°21.049 3°5.767 17.660667 3.519252 29.224788 -0.814958
2003-04-09 10:19:56 51°21.028 3°5.724 17.875503 3.518409 29.225324 -0.848668
2003-04-09 10:20:56 51°21.007 3°5.682 17.880801 3.517461 29.226076 -0.848668
2003-04-09 10:21:56 51°20.986 3°5.64 17.293333 3.516408 29.226452 -0.882377
2003-04-09 10:22:56 51°20.964 3°5.601 17.611774 3.515354 29.226235 -0.848668
2003-04-09 10:23:56 51°20.942 3°5.56 17.475545 3.514301 29.226019 -0.882377
2003-04-09 10:24:56 51°20.921 3°5.522 17.61751 3.513458 29.227748 -0.814958
2003-04-09 10:25:56 51°20.895 3°5.477 17.611062 3.512405 29.228128 -0.848668
2003-04-09 10:26:56 51°20.856 3°5.378 17.652213 3.511246 29.228726 -0.848668
2003-04-09 10:27:56 51°20.83 3°5.149 18.029306 3.510298 29.228892 -0.848668
2003-04-09 10:28:56 51°20.8 3°4.848 17.306289 3.509245 29.229871 -0.882377
2003-04-09 10:29:56 51°20.742 3°4.546 17.613449 3.508191 29.22847 -0.848668
2003-04-09 10:30:56 51°20.682 3°4.241 18.032344 3.507243 29.226256 -0.882377
2003-04-09 10:31:56 51°20.623 3°3.932 18.242174 3.506295 29.222851 -0.848668
2003-04-09 10:32:56 51°20.566 3°3.626 17.556141 3.505452 29.221611 -0.882377
2003-04-09 10:33:56 51°20.51 3°3.321 17.943133 3.50461 29.218583 -0.882377
2003-04-09 10:34:56 51°20.455 3°3.018 18.036881 3.503872 29.215933 -0.882377
2003-04-09 10:35:56 51°20.399 3°2.714 17.198739 3.50324 29.214853 -0.882377
2003-04-09 10:36:56 51°20.342 3°2.412 17.616505 3.502608 29.213772 -0.848668
2003-04-09 10:37:56 51°20.286 3°2.112 17.761274 3.501976 29.2115 -0.848668
2003-04-09 10:38:56 51°20.23 3°1.809 16.773803 3.501449 29.210798 -0.848668
2003-04-09 10:39:56 51°20.173 3°1.508 17.356197 3.500923 29.210096 -0.882377
2003-04-09 10:40:56 51°20.116 3°1.206 17.314784 3.500607 29.211345 -0.848668
2003-04-09 10:41:56 51°20.06 3°0.9 17.865657 3.50008 29.210643 -0.848668
2003-04-09 10:42:56 51°20.003 3°0.596 17.647065 3.499659 29.21032 -0.848668
2003-04-09 10:43:56 51°19.944 3°0.287 17.867618 3.499237 29.209998 -0.848668
2003-04-09 10:44:56 51°19.886 2°59.979 17.998123 3.498816 29.209675 -0.848668
2003-04-09 10:45:56 51°19.829 2°59.67 17.758516 3.498395 29.209353 -0.848668
2003-04-09 10:46:56 51°19.77 2°59.359 17.772054 3.497973 29.210224 -0.882377
2003-04-09 10:47:56 51°19.712 2°59.05 18.184969 3.497552 29.209901 -0.848668
2003-04-09 10:48:56 51°19.652 2°58.738 18.024602 3.497236 29.210555 -0.848668
2003-04-09 10:49:56 51°19.594 2°58.432 17.821376 3.496815 29.210233 -0.848668
2003-04-09 10:50:56 51°19.535 2°58.125 17.640703 3.496499 29.21029 -0.882377
2003-04-09 10:51:56 51°19.475 2°57.816 18.040293 3.496077 29.210565 -0.882377
2003-04-09 10:52:56 51°19.415 2°57.507 18.386678 3.495761 29.211817 -0.882377
2003-04-09 10:53:56 51°19.355 2°57.199 17.783667 3.49534 29.212093 -0.882377
2003-04-09 10:54:56 51°19.293 2°56.891 18.019981 3.494919 29.211771 -0.848668
2003-04-09 10:55:56 51°19.233 2°56.582 17.692922 3.494603 29.213024 -0.848668
2003-04-09 10:56:56 51°19.173 2°56.276 17.694721 3.494181 29.212703 -0.848668
2003-04-09 10:57:56 51°19.114 2°55.973 17.770341 3.493865 29.213957 -0.882377
2003-04-09 10:58:56 51°19.054 2°55.67 17.700199 3.493444 29.214234 -0.848668
2003-04-09 10:59:56 51°18.992 2°55.366 17.987753 3.493023 29.215109 -0.848668
2003-04-09 11:00:56 51°18.925 2°55.063 17.583251 3.492601 29.215985 -0.848668
2003-04-09 11:01:56 51°18.858 2°54.76 17.819456 3.49218 29.216263 -0.882377
2003-04-09 11:02:56 51°18.792 2°54.456 17.899777 3.491759 29.217139 -0.882377
2003-04-09 11:03:56 51°18.725 2°54.152 18.043539 3.491232 29.21644 -0.882377
2003-04-09 11:04:56 51°18.651 2°53.852 18.247775 3.490811 29.217317 -0.882377
2003-04-09 11:05:56 51°18.573 2°53.553 17.933672 3.490495 29.217377 -0.848668
2003-04-09 11:06:56 51°18.483 2°53.263 17.725664 3.490073 29.217656 -0.848668
2003-04-09 11:07:56 51°18.393 2°52.971 17.883137 3.489757 29.218314 -0.882377
2003-04-09 11:08:56 51°18.287 2°52.694 17.963384 3.489336 29.217396 -0.882377
2003-04-09 11:09:56 51°18.133 2°52.492 17.829183 3.488915 29.218275 -0.848668
2003-04-09 11:10:56 51°17.944 2°52.407 17.908617 3.488599 29.218934 -0.848668
2003-04-09 11:11:56 51°17.75 2°52.372 17.981922 3.487966 29.217257 -0.848668
2003-04-09 11:12:56 51°17.55 2°52.342 17.851137 3.487651 29.219715 -0.848668
2003-04-09 11:13:56 51°17.361 2°52.308 17.683385 3.487229 29.220595 -0.848668
2003-04-09 11:14:56 51°17.169 2°52.238 17.853515 3.486703 29.222296 -0.882377
2003-04-09 11:15:56 51°16.978 2°52.156 17.452926 3.486281 29.226177 -0.848668
2003-04-09 11:16:56 51°16.787 2°52.078 17.624754 3.485544 29.225921 -0.882377
2003-04-09 11:17:56 51°16.598 2°52.001 17.738581 3.484912 29.227246 -0.882377
2003-04-09 11:18:56 51°16.411 2°51.923 17.979381 3.48428 29.229773 -0.848668
2003-04-09 11:19:56 51°16.223 2°51.842 17.914997 3.483332 29.228159 -0.848668
2003-04-09 11:20:56 51°16.038 2°51.759 18.092711 3.482595 29.229108 -0.814958
2003-04-09 11:21:56 51°15.849 2°51.672 17.476678 3.481963 29.229835 -0.848668
2003-04-09 11:22:56 51°15.66 2°51.594 17.757889 3.48112 29.231007 -0.882377
2003-04-09 11:23:56 51°15.469 2°51.522 18.241219 3.480277 29.230977 -0.848668
2003-04-09 11:24:56 51°15.278 2°51.466 17.973591 3.47954 29.230725 -0.848668
2003-04-09 11:25:56 51°15.085 2°51.408 17.774226 3.478803 29.23228 -0.882377
2003-04-09 11:26:56 51°14.946 2°51.323 17.746355 3.477855 29.231872 -0.848668
2003-04-09 11:27:56 51°14.881 2°51.207 17.750326 3.477012 29.229435 -0.848668
2003-04-09 11:28:56 51°14.834 2°51.113 17.448518 3.476275 29.229787 -0.848668
2003-04-09 11:29:56 51°14.782 2°51.044 17.901487 3.475432 29.228555 -0.848668
2003-04-09 11:30:56 51°14.73 2°50.986 17.464047 3.474695 29.2271 -0.848668
2003-04-09 11:31:56 51°14.663 2°50.903 17.640243 3.474168 29.226405 -0.848668
2003-04-09 11:32:56 51°14.616 2°50.769 18.187959 3.473431 29.224347 -0.848668
2003-04-09 11:33:56 51°14.575 2°50.626 17.544699 3.472799 29.222669 -0.848668
2003-04-09 11:34:56 51°14.541 2°50.515 17.722696 3.472272 29.221974 -0.882377
2003-04-09 11:35:59 51°14.513 2°50.413 17.789431 3.47164 29.220295 -0.882377
2003-04-09 11:36:58 51°14.491 2°50.329 17.658072 3.471113 29.218997 -0.848668
2003-04-09 11:37:58 51°14.468 2°50.251 18.140933 3.470692 29.218681 -0.848668
2003-04-09 11:38:58 51°14.443 2°50.173 17.908909 3.470271 29.217763 -0.882377
2003-04-09 11:39:58 51°14.418 2°50.098 17.746439 3.469955 29.217828 -0.882377
2003-04-09 11:40:58 51°14.39 2°50.028 17.992292 3.469533 29.21691 -0.848668
2003-04-09 11:41:58 51°14.359 2°49.956 18.033468 3.469428 29.21834 -0.882377
2003-04-09 11:42:58 51°14.327 2°49.885 17.866575 3.468901 29.217041 -0.848668
2003-04-09 11:43:58 51°14.296 2°49.812 18.007033 3.468691 29.217487 -0.848668
2003-04-09 11:44:58 51°14.266 2°49.74 17.670876 3.468375 29.217553 -0.848668
2003-04-09 11:45:58 51°14.235 2°49.67 17.742468 3.468164 29.217999 -0.848668
2003-04-09 11:46:58 51°14.202 2°49.597 17.883637 3.467953 29.218445 -0.848668
2003-04-09 11:47:58 51°14.17 2°49.528 17.88689 3.467637 29.217907 -0.882377
2003-04-09 11:48:58 51°14.136 2°49.46 17.82242 3.467532 29.219338 -0.882377
2003-04-09 11:49:58 51°14.1 2°49.395 17.894773 3.467321 29.219181 -0.848668
2003-04-09 11:50:58 51°14.064 2°49.326 18.440614 3.467005 29.21804 -0.848668
2003-04-09 11:51:58 51°14.031 2°49.257 17.966551 3.466795 29.217278 -0.848668
2003-04-09 11:52:58 51°13.997 2°49.189 17.833274 3.466584 29.217725 -0.882377
2003-04-09 11:53:58 51°13.965 2°49.12 18.074702 3.466584 29.220141 -0.848668
2003-04-09 11:54:58 51°13.934 2°49.05 17.974216 3.466268 29.218396 -0.848668
2003-04-09 11:55:58 51°13.904 2°48.981 17.84279 3.466163 29.218619 -0.882377
2003-04-09 11:56:58 51°13.875 2°48.908 17.983588 3.466057 29.219447 -0.848668
2003-04-09 11:57:58 51°13.844 2°48.837 18.255783 3.465847 29.21929 -0.882377
2003-04-09 11:58:58 51°13.809 2°48.772 18.225034 3.465847 29.221707 -0.848668
2003-04-09 11:59:58 51°13.773 2°48.714 18.124308 3.465636 29.220946 -0.848668
2003-04-09 12:00:58 51°13.735 2°48.655 17.92446 3.465531 29.221169 -0.882377
2003-04-09 12:01:58 51°13.696 2°48.593 18.336264 3.46532 29.221617 -0.848668
2003-04-09 12:02:58 51°13.657 2°48.534 17.796824 3.46532 29.222826 -0.882377
2003-04-09 12:03:58 51°13.616 2°48.473 18.007117 3.465215 29.22305 -0.848668
2003-04-09 12:04:58 51°13.575 2°48.415 9.440803 3.301207 27.070929 12.80364
2003-04-09 12:05:58 51°13.538 2°48.354 9.432902 3.165741 30.109413 13.747503
2003-04-09 12:06:58 51°13.503 2°48.29 8.708203 3.051409 29.003933 14.4554
2003-04-09 12:07:58 51°13.473 2°48.226 10.338712 3.164374 30.228184 14.421691
2003-04-09 12:08:58 51°13.45 2°48.158 8.866232 3.148686 30.084872 14.556529
2003-04-09 12:09:58 51°13.428 2°48.1 9.452439 3.154793 30.163222 14.118306
2003-04-09 12:10:58 51°13.416 2°48.021 9.095255 3.14995 30.11998 14.387982
2003-04-09 12:11:58 51°13.42 2°47.907 9.013163 3.152266 30.154654 13.949759
2003-04-09 12:12:58 51°13.422 2°47.819 9.438248 3.147213 30.109163 13.477828
2003-04-09 12:13:58 51°13.419 2°47.752 9.325603 3.157742 30.224256 13.477828
2003-04-09 12:14:58 51°13.416 2°47.69 8.940454 3.154688 30.195566 13.410409
2003-04-09 12:15:58 51°13.422 2°47.632 9.567178 3.158268 30.23056 13.34299
2003-04-09 12:16:58 51°13.436 2°47.585 8.87005 3.157952 30.224299 13.444118
2003-04-09 12:17:58 51°13.451 2°47.562 9.800614 3.154056 30.183782 13.208153
2003-04-09 12:18:58 51°13.456 2°47.555 9.722613 3.161743 30.269547 13.578956
2003-04-09 12:19:58 51°13.447 2°47.539 9.327309 3.115733 29.787757 13.477828
2003-04-09 12:20:58 51°13.426 2°47.51 9.408389 3.16248 30.284657 13.578956
2003-04-09 12:21:58 51°13.402 2°47.471 10.262332 3.162269 30.280235 13.073315
2003-04-09 12:22:58 51°13.379 2°47.428 9.102578 3.161216 30.272001 12.938477
2003-04-09 12:23:58 51°13.357 2°47.388 9.324892 3.1609 30.269385 12.062033
2003-04-09 12:24:58 51°13.331 2°47.352 9.885947 3.160584 30.247067 12.635093
2003-04-09 12:25:58 51°13.305 2°47.322 9.117271 3.158479 30.236435 13.309281
2003-04-09 12:26:58 51°13.278 2°47.295 9.651968 3.161111 30.267235 13.140734
2003-04-09 12:27:58 51°13.251 2°47.268 9.39736 3.163006 30.289504 12.028324
2003-04-09 12:28:58 51°13.225 2°47.243 9.353273 3.162058 30.259028 10.882204
2003-04-09 12:29:58 51°13.198 2°47.219 9.891961 3.160795 30.251485 11.556392
2003-04-09 12:30:58 51°13.17 2°47.193 9.775911 3.16627 30.286832 10.983332
2003-04-09 12:31:58 51°13.144 2°47.17 9.008591 3.165112 30.278221 11.65752
2003-04-09 12:32:58 51°13.117 2°47.148 9.896236 3.161005 30.252985 11.69123
2003-04-09 12:33:58 51°13.092 2°47.126 9.396982 3.157847 30.20425 11.927195
2003-04-09 12:34:58 51°13.066 2°47.105 8.854729 3.153951 30.200872 13.107024
2003-04-09 12:35:58 51°13.041 2°47.08 9.632915 3.147213 30.14696 11.017042
2003-04-09 12:36:58 51°13.02 2°47.058 9.610271 3.148055 30.144241 10.140597
2003-04-09 12:37:58 51°12.994 2°47.033 9.620179 3.155109 30.205853 10.073178
2003-04-09 12:38:58 51°12.971 2°47.011 9.702073 3.149318 30.129269 10.5114
2003-04-09 12:39:58 51°12.943 2°46.989 10.119838 3.157952 30.216285 9.904631
2003-04-09 12:40:58 51°12.922 2°46.968 10.166684 3.155636 30.183764 8.758512
2003-04-09 12:41:58 51°12.897 2°46.945 9.312285 3.159636 30.212272 9.601247
2003-04-09 12:42:58 51°12.87 2°46.922 9.101817 3.159215 30.226746 11.286717
2003-04-09 12:43:58 51°12.845 2°46.904 9.73029 3.159742 30.225034 10.915913
2003-04-09 12:44:58 51°12.803 2°46.902 8.957805 3.155004 30.198183 13.511537
2003-04-09 12:45:58 51°12.743 2°46.871 9.539504 3.150793 30.160138 13.713794
2003-04-09 12:46:58 51°12.705 2°46.779 9.864895 3.150793 30.161593 14.590238
2003-04-09 12:47:58 51°12.726 2°46.673 9.558537 3.153846 30.179369 14.994751
2003-04-09 12:48:58 51°12.805 2°46.638 -999 3.157847 30.229015 14.691366
2003-04-09 12:49:58 51°12.9 2°46.751 -999 3.157636 30.236265 14.017178
2003-04-09 12:50:58 51°13.039 2°46.932 -999 3.155636 30.231119 14.320563
2003-04-09 12:51:58 51°13.182 2°47.151 -999 3.154478 30.213739 14.4554
2003-04-09 12:52:58 51°13.328 2°47.376 -999 3.160374 30.278416 14.219435
2003-04-09 12:53:58 51°13.46 2°47.617 -999 3.162374 30.289387 14.050888
2003-04-09 12:54:58 51°13.567 2°47.892 -999 3.158584 30.256523 14.994751
2003-04-09 12:55:58 51°13.665 2°48.172 -999 3.1569 30.24743 15.129589
2003-04-09 12:56:58 51°13.771 2°48.444 -999 3.158058 30.267745 14.320563
2003-04-09 12:57:58 51°13.879 2°48.715 -999 3.152162 30.208882 13.241862
2003-04-09 12:58:58 51°13.973 2°49.001 -999 3.160374 30.301089 13.444118
2003-04-09 12:59:58 51°14.058 2°49.294 -999 3.159743 30.294388 14.556529
2003-04-09 13:00:58 51°14.139 2°49.59 -999 3.158058 30.27725 15.197007
2003-04-09 13:01:58 51°14.214 2°49.889 -999 3.157531 30.261432 15.534101
2003-04-09 13:02:58 51°14.285 2°50.193 -999 3.160585 30.293078 17.522956
2003-04-09 13:03:58 51°14.355 2°50.491 -999 3.155215 30.232493 17.826341
2003-04-09 13:04:58 51°14.425 2°50.795 -999 3.165428 30.334189 18.466819
2003-04-09 13:05:58 51°14.496 2°51.098 -999 3.167534 30.350657 18.3994
2003-04-09 13:06:58 51°14.567 2°51.401 -999 3.171535 30.389413 18.3994
2003-04-09 13:07:58 51°14.636 2°51.702 -999 3.169955 30.368271 18.736494
2003-04-09 13:08:58 51°14.706 2°52.006 -999 3.164059 30.313091 18.837623
2003-04-09 13:09:58 51°14.771 2°52.314 -999 3.169218 30.373649 18.837623
2003-04-09 13:10:58 51°14.812 2°52.634 -999 3.171114 30.403289 19.242136
2003-04-09 13:11:58 51°14.843 2°52.958 -999 3.169324 30.398248 20.017452
2003-04-09 13:12:58 51°14.829 2°53.286 -999 3.168798 30.401474 22.646785
2003-04-09 13:13:58 51°14.79 2°53.617 -999 3.17143 30.395631 20.388255
2003-04-09 13:14:58 51°14.748 2°53.951 -999 3.170903 30.397385 21.601794
2003-04-09 13:15:58 51°14.678 2°54.274 -999 3.168903 30.3791 19.511811
2003-04-09 13:16:58 51°14.587 2°54.565 -999 3.169745 30.380699 19.242136
2003-04-09 13:17:58 51°14.476 2°54.832 -999 3.168587 30.355227 20.152289
2003-04-09 13:18:58 51°14.356 2°55.088 -999 3.167534 30.331625 21.702922
2003-04-09 13:19:58 51°14.25 2°55.287 -999 3.111521 29.703132 21.365828
2003-04-09 13:20:59 51°14.162 2°55.381 -999 2.960781 27.977713 21.837759
2003-04-09 13:21:59 51°14.083 2°55.439 -999 2.944678 27.79922 21.669212
2003-04-09 13:22:58 51°14.007 2°55.496 -999 2.798092 26.096865 16.983606
2003-04-09 13:23:58 51°13.927 2°55.553 -999 2.674061 24.657766 14.927332
2003-04-09 13:24:58 51°13.847 2°55.613 -999 2.674902 24.673271 16.376836
2003-04-09 13:25:58 51°13.771 2°55.686 -999 2.634723 24.217107 16.140871
2003-04-09 13:26:58 51°13.713 2°55.777 -999 2.521569 23.053944 16.781349
2003-04-09 13:27:58 51°13.673 2°55.87 -999 2.436091 22.113988 16.815059
2003-04-09 13:28:58 51°13.639 2°55.955 -999 2.411703 21.859126 16.646512
2003-04-09 13:29:58 51°13.613 2°56.032 -999 2.457117 22.332256 17.624084
2003-04-09 13:30:58 51°13.601 2°56.092 -999 2.608956 23.976131 17.388118
2003-04-09 13:32:04 51°13.6 2°56.102 -999 2.511789 22.892451 14.994751